sensor_id;sensor_type;location;lat;lon;timestamp;P1;durP1;ratioP1;P2;durP2;ratioP2
17127;SDS011;8679;50.842;4.322;2022-11-15T00:00:47;2.57;;;2.03;;
17127;SDS011;8679;50.842;4.322;2022-11-15T00:03:14;2.87;;;1.47;;
17127;SDS011;8679;50.842;4.322;2022-11-15T00:05:41;1.57;;;1.37;;
17127;SDS011;8679;50.842;4.322;2022-11-15T00:08:07;5.07;;;2.07;;
17127;SDS011;8679;50.842;4.322;2022-11-15T00:10:33;1.87;;;1.40;;
17127;SDS011;8679;50.842;4.322;2022-11-15T00:13:07;2.90;;;2.10;;
17127;SDS011;8679;50.842;4.322;2022-11-15T00:15:38;3.03;;;1.87;;
17127;SDS011;8679;50.842;4.322;2022-11-15T00:18:05;2.73;;;2.00;;
17127;SDS011;8679;50.842;4.322;2022-11-15T00:20:33;3.80;;;2.70;;
17127;SDS011;8679;50.842;4.322;2022-11-15T00:22:59;2.53;;;2.33;;
17127;SDS011;8679;50.842;4.322;2022-11-15T00:25:25;2.27;;;1.90;;
17127;SDS011;8679;50.842;4.322;2022-11-15T00:27:54;2.07;;;1.80;;
17127;SDS011;8679;50.842;4.322;2022-11-15T00:30:21;2.43;;;1.87;;
17127;SDS011;8679;50.842;4.322;2022-11-15T00:32:47;3.57;;;2.10;;
17127;SDS011;8679;50.842;4.322;2022-11-15T00:35:13;3.60;;;2.00;;
17127;SDS011;8679;50.842;4.322;2022-11-15T00:37:39;2.37;;;1.53;;
17127;SDS011;8679;50.842;4.322;2022-11-15T00:40:04;3.67;;;2.83;;
17127;SDS011;8679;50.842;4.322;2022-11-15T00:42:30;2.73;;;1.97;;
17127;SDS011;8679;50.842;4.322;2022-11-15T00:44:56;1.53;;;1.43;;
17127;SDS011;8679;50.842;4.322;2022-11-15T00:47:22;3.00;;;1.33;;
17127;SDS011;8679;50.842;4.322;2022-11-15T00:49:47;2.87;;;1.87;;
17127;SDS011;8679;50.842;4.322;2022-11-15T00:52:14;2.70;;;2.03;;
17127;SDS011;8679;50.842;4.322;2022-11-15T00:54:39;3.53;;;2.07;;
17127;SDS011;8679;50.842;4.322;2022-11-15T00:57:05;1.90;;;1.73;;
17127;SDS011;8679;50.842;4.322;2022-11-15T00:59:31;2.80;;;1.17;;
17127;SDS011;8679;50.842;4.322;2022-11-15T01:01:56;2.30;;;1.63;;
17127;SDS011;8679;50.842;4.322;2022-11-15T01:04:22;5.27;;;1.57;;
17127;SDS011;8679;50.842;4.322;2022-11-15T01:06:47;2.90;;;2.23;;
17127;SDS011;8679;50.842;4.322;2022-11-15T01:09:13;3.07;;;2.20;;
17127;SDS011;8679;50.842;4.322;2022-11-15T01:11:39;5.10;;;2.23;;
17127;SDS011;8679;50.842;4.322;2022-11-15T01:14:05;2.07;;;1.50;;
17127;SDS011;8679;50.842;4.322;2022-11-15T01:16:30;3.77;;;2.33;;
17127;SDS011;8679;50.842;4.322;2022-11-15T01:18:57;2.53;;;1.47;;
17127;SDS011;8679;50.842;4.322;2022-11-15T01:21:23;2.17;;;1.67;;
17127;SDS011;8679;50.842;4.322;2022-11-15T01:23:52;2.80;;;2.13;;
17127;SDS011;8679;50.842;4.322;2022-11-15T01:26:20;3.70;;;2.60;;
17127;SDS011;8679;50.842;4.322;2022-11-15T01:28:46;5.60;;;2.90;;
17127;SDS011;8679;50.842;4.322;2022-11-15T01:31:12;2.73;;;1.80;;
17127;SDS011;8679;50.842;4.322;2022-11-15T01:33:40;2.87;;;1.67;;
17127;SDS011;8679;50.842;4.322;2022-11-15T01:36:07;2.87;;;1.67;;
17127;SDS011;8679;50.842;4.322;2022-11-15T01:38:36;3.20;;;1.73;;
17127;SDS011;8679;50.842;4.322;2022-11-15T01:41:01;2.47;;;1.83;;
17127;SDS011;8679;50.842;4.322;2022-11-15T01:43:29;1.97;;;1.77;;
17127;SDS011;8679;50.842;4.322;2022-11-15T01:46:06;2.90;;;1.70;;
17127;SDS011;8679;50.842;4.322;2022-11-15T01:48:50;3.27;;;1.90;;
17127;SDS011;8679;50.842;4.322;2022-11-15T01:51:18;2.07;;;1.70;;
17127;SDS011;8679;50.842;4.322;2022-11-15T01:53:47;1.50;;;1.40;;
17127;SDS011;8679;50.842;4.322;2022-11-15T01:56:18;3.13;;;1.47;;
17127;SDS011;8679;50.842;4.322;2022-11-15T01:58:50;2.33;;;2.00;;
17127;SDS011;8679;50.842;4.322;2022-11-15T02:01:17;1.60;;;1.50;;
17127;SDS011;8679;50.842;4.322;2022-11-15T02:03:46;2.67;;;1.73;;
17127;SDS011;8679;50.842;4.322;2022-11-15T02:06:21;2.93;;;1.63;;
17127;SDS011;8679;50.842;4.322;2022-11-15T02:08:47;4.07;;;2.40;;
17127;SDS011;8679;50.842;4.322;2022-11-15T02:11:15;4.20;;;1.97;;
17127;SDS011;8679;50.842;4.322;2022-11-15T02:13:41;2.00;;;1.33;;
17127;SDS011;8679;50.842;4.322;2022-11-15T02:16:33;4.70;;;2.03;;
17127;SDS011;8679;50.842;4.322;2022-11-15T02:27:32;1.77;;;1.27;;
17127;SDS011;8679;50.842;4.322;2022-11-15T02:30:24;2.83;;;1.40;;
17127;SDS011;8679;50.842;4.322;2022-11-15T02:36:05;1.90;;;1.33;;
17127;SDS011;8679;50.842;4.322;2022-11-15T02:38:39;2.00;;;1.80;;
17127;SDS011;8679;50.842;4.322;2022-11-15T02:41:23;2.40;;;1.77;;
17127;SDS011;8679;50.842;4.322;2022-11-15T02:44:07;2.47;;;1.70;;
17127;SDS011;8679;50.842;4.322;2022-11-15T02:46:40;5.30;;;1.53;;
17127;SDS011;8679;50.842;4.322;2022-11-15T02:52:19;3.03;;;1.50;;
17127;SDS011;8679;50.842;4.322;2022-11-15T02:54:53;2.23;;;1.70;;
17127;SDS011;8679;50.842;4.322;2022-11-15T02:57:21;2.80;;;1.27;;
17127;SDS011;8679;50.842;4.322;2022-11-15T03:00:15;1.67;;;1.03;;
17127;SDS011;8679;50.842;4.322;2022-11-15T03:02:55;2.23;;;1.60;;
17127;SDS011;8679;50.842;4.322;2022-11-15T03:06:03;1.43;;;1.20;;
17127;SDS011;8679;50.842;4.322;2022-11-15T03:11:32;2.20;;;1.20;;
17127;SDS011;8679;50.842;4.322;2022-11-15T03:14:20;2.80;;;1.07;;
17127;SDS011;8679;50.842;4.322;2022-11-15T03:16:51;1.63;;;1.53;;
17127;SDS011;8679;50.842;4.322;2022-11-15T03:22:07;2.83;;;1.07;;
17127;SDS011;8679;50.842;4.322;2022-11-15T03:24:36;1.23;;;0.73;;
17127;SDS011;8679;50.842;4.322;2022-11-15T03:27:05;1.60;;;0.90;;
17127;SDS011;8679;50.842;4.322;2022-11-15T03:29:35;0.67;;;0.63;;
17127;SDS011;8679;50.842;4.322;2022-11-15T03:32:11;1.57;;;1.40;;
17127;SDS011;8679;50.842;4.322;2022-11-15T03:34:42;1.10;;;1.00;;
17127;SDS011;8679;50.842;4.322;2022-11-15T03:37:16;1.00;;;0.73;;
17127;SDS011;8679;50.842;4.322;2022-11-15T03:39:45;2.80;;;2.07;;
17127;SDS011;8679;50.842;4.322;2022-11-15T03:45:01;3.43;;;1.43;;
17127;SDS011;8679;50.842;4.322;2022-11-15T03:47:38;2.40;;;1.60;;
17127;SDS011;8679;50.842;4.322;2022-11-15T03:50:08;2.53;;;1.20;;
17127;SDS011;8679;50.842;4.322;2022-11-15T03:52:37;1.30;;;1.10;;
17127;SDS011;8679;50.842;4.322;2022-11-15T03:55:06;1.60;;;0.63;;
17127;SDS011;8679;50.842;4.322;2022-11-15T03:57:33;3.47;;;1.43;;
17127;SDS011;8679;50.842;4.322;2022-11-15T03:59:59;1.23;;;0.97;;
17127;SDS011;8679;50.842;4.322;2022-11-15T04:02:25;1.37;;;0.80;;
17127;SDS011;8679;50.842;4.322;2022-11-15T04:04:51;2.73;;;0.97;;
17127;SDS011;8679;50.842;4.322;2022-11-15T04:07:16;0.90;;;0.73;;
17127;SDS011;8679;50.842;4.322;2022-11-15T04:09:42;0.60;;;0.60;;
17127;SDS011;8679;50.842;4.322;2022-11-15T04:12:26;0.60;;;0.57;;
17127;SDS011;8679;50.842;4.322;2022-11-15T04:15:05;0.90;;;0.70;;
17127;SDS011;8679;50.842;4.322;2022-11-15T04:17:34;1.53;;;1.00;;
17127;SDS011;8679;50.842;4.322;2022-11-15T04:20:01;0.90;;;0.80;;
17127;SDS011;8679;50.842;4.322;2022-11-15T04:22:46;0.60;;;0.60;;
17127;SDS011;8679;50.842;4.322;2022-11-15T04:25:30;3.67;;;0.70;;
17127;SDS011;8679;50.842;4.322;2022-11-15T04:27:56;1.23;;;1.03;;
17127;SDS011;8679;50.842;4.322;2022-11-15T04:30:22;0.60;;;0.60;;
17127;SDS011;8679;50.842;4.322;2022-11-15T04:32:47;0.83;;;0.70;;
17127;SDS011;8679;50.842;4.322;2022-11-15T04:35:13;1.10;;;0.80;;
17127;SDS011;8679;50.842;4.322;2022-11-15T04:37:38;0.40;;;0.30;;
17127;SDS011;8679;50.842;4.322;2022-11-15T04:40:04;1.00;;;0.90;;
17127;SDS011;8679;50.842;4.322;2022-11-15T04:42:30;0.83;;;0.50;;
17127;SDS011;8679;50.842;4.322;2022-11-15T04:44:56;0.50;;;0.50;;
17127;SDS011;8679;50.842;4.322;2022-11-15T04:47:22;1.57;;;0.90;;
17127;SDS011;8679;50.842;4.322;2022-11-15T04:49:47;0.67;;;0.50;;
17127;SDS011;8679;50.842;4.322;2022-11-15T04:52:13;2.43;;;1.30;;
17127;SDS011;8679;50.842;4.322;2022-11-15T04:54:38;1.37;;;1.10;;
17127;SDS011;8679;50.842;4.322;2022-11-15T04:57:04;0.90;;;0.83;;
17127;SDS011;8679;50.842;4.322;2022-11-15T04:59:30;0.70;;;0.63;;
17127;SDS011;8679;50.842;4.322;2022-11-15T05:01:55;1.67;;;0.83;;
17127;SDS011;8679;50.842;4.322;2022-11-15T05:04:21;0.80;;;0.80;;
17127;SDS011;8679;50.842;4.322;2022-11-15T05:06:47;1.13;;;0.60;;
17127;SDS011;8679;50.842;4.322;2022-11-15T05:09:14;0.63;;;0.50;;
17127;SDS011;8679;50.842;4.322;2022-11-15T05:11:40;1.37;;;1.27;;
17127;SDS011;8679;50.842;4.322;2022-11-15T05:14:06;2.40;;;0.80;;
17127;SDS011;8679;50.842;4.322;2022-11-15T05:16:32;2.33;;;1.07;;
17127;SDS011;8679;50.842;4.322;2022-11-15T05:18:58;0.77;;;0.70;;
17127;SDS011;8679;50.842;4.322;2022-11-15T05:21:24;0.90;;;0.90;;
17127;SDS011;8679;50.842;4.322;2022-11-15T05:23:49;0.50;;;0.50;;
17127;SDS011;8679;50.842;4.322;2022-11-15T05:26:16;0.93;;;0.73;;
17127;SDS011;8679;50.842;4.322;2022-11-15T05:28:42;0.80;;;0.80;;
17127;SDS011;8679;50.842;4.322;2022-11-15T05:31:09;0.73;;;0.73;;
17127;SDS011;8679;50.842;4.322;2022-11-15T05:33:37;0.73;;;0.67;;
17127;SDS011;8679;50.842;4.322;2022-11-15T05:36:07;1.37;;;1.20;;
17127;SDS011;8679;50.842;4.322;2022-11-15T05:38:48;0.50;;;0.50;;
17127;SDS011;8679;50.842;4.322;2022-11-15T05:41:15;1.23;;;0.60;;
17127;SDS011;8679;50.842;4.322;2022-11-15T05:43:42;0.73;;;0.30;;
17127;SDS011;8679;50.842;4.322;2022-11-15T05:46:08;0.50;;;0.50;;
17127;SDS011;8679;50.842;4.322;2022-11-15T05:48:34;0.20;;;0.20;;
17127;SDS011;8679;50.842;4.322;2022-11-15T05:51:02;0.47;;;0.47;;
17127;SDS011;8679;50.842;4.322;2022-11-15T05:53:30;0.20;;;0.20;;
17127;SDS011;8679;50.842;4.322;2022-11-15T05:55:56;0.30;;;0.30;;
17127;SDS011;8679;50.842;4.322;2022-11-15T05:58:22;1.33;;;1.10;;
17127;SDS011;8679;50.842;4.322;2022-11-15T06:00:47;0.60;;;0.60;;
17127;SDS011;8679;50.842;4.322;2022-11-15T06:03:13;0.80;;;0.47;;
17127;SDS011;8679;50.842;4.322;2022-11-15T06:05:39;1.67;;;0.80;;
17127;SDS011;8679;50.842;4.322;2022-11-15T06:08:05;0.40;;;0.40;;
17127;SDS011;8679;50.842;4.322;2022-11-15T06:10:31;1.13;;;0.77;;
17127;SDS011;8679;50.842;4.322;2022-11-15T06:12:58;0.67;;;0.67;;
17127;SDS011;8679;50.842;4.322;2022-11-15T06:15:24;0.60;;;0.57;;
17127;SDS011;8679;50.842;4.322;2022-11-15T06:17:50;0.63;;;0.63;;
17127;SDS011;8679;50.842;4.322;2022-11-15T06:20:16;0.50;;;0.40;;
17127;SDS011;8679;50.842;4.322;2022-11-15T06:22:42;1.17;;;0.70;;
17127;SDS011;8679;50.842;4.322;2022-11-15T06:25:08;0.20;;;0.20;;
17127;SDS011;8679;50.842;4.322;2022-11-15T06:27:34;1.40;;;0.67;;
17127;SDS011;8679;50.842;4.322;2022-11-15T06:29:59;0.40;;;0.40;;
17127;SDS011;8679;50.842;4.322;2022-11-15T06:32:25;0.60;;;0.30;;
17127;SDS011;8679;50.842;4.322;2022-11-15T06:34:50;0.40;;;0.40;;
17127;SDS011;8679;50.842;4.322;2022-11-15T06:37:16;0.40;;;0.40;;
17127;SDS011;8679;50.842;4.322;2022-11-15T06:39:42;0.53;;;0.40;;
17127;SDS011;8679;50.842;4.322;2022-11-15T06:42:08;0.50;;;0.50;;
17127;SDS011;8679;50.842;4.322;2022-11-15T06:44:34;0.50;;;0.50;;
17127;SDS011;8679;50.842;4.322;2022-11-15T06:46:59;0.87;;;0.57;;
17127;SDS011;8679;50.842;4.322;2022-11-15T06:49:25;0.87;;;0.87;;
17127;SDS011;8679;50.842;4.322;2022-11-15T06:51:51;1.50;;;1.40;;
17127;SDS011;8679;50.842;4.322;2022-11-15T06:54:16;0.60;;;0.47;;
17127;SDS011;8679;50.842;4.322;2022-11-15T06:56:42;0.80;;;0.73;;
17127;SDS011;8679;50.842;4.322;2022-11-15T06:59:07;0.33;;;0.33;;
17127;SDS011;8679;50.842;4.322;2022-11-15T07:01:33;0.77;;;0.77;;
17127;SDS011;8679;50.842;4.322;2022-11-15T07:03:59;1.37;;;0.70;;
17127;SDS011;8679;50.842;4.322;2022-11-15T07:06:24;0.73;;;0.30;;
17127;SDS011;8679;50.842;4.322;2022-11-15T07:08:50;0.33;;;0.30;;
17127;SDS011;8679;50.842;4.322;2022-11-15T07:11:15;1.07;;;0.87;;
17127;SDS011;8679;50.842;4.322;2022-11-15T07:13:41;0.60;;;0.40;;
17127;SDS011;8679;50.842;4.322;2022-11-15T07:16:07;0.50;;;0.50;;
17127;SDS011;8679;50.842;4.322;2022-11-15T07:18:35;1.90;;;0.37;;
17127;SDS011;8679;50.842;4.322;2022-11-15T07:21:02;0.47;;;0.40;;
17127;SDS011;8679;50.842;4.322;2022-11-15T07:23:29;0.20;;;0.20;;
17127;SDS011;8679;50.842;4.322;2022-11-15T07:25:56;0.20;;;0.20;;
17127;SDS011;8679;50.842;4.322;2022-11-15T07:28:23;0.33;;;0.30;;
17127;SDS011;8679;50.842;4.322;2022-11-15T07:30:49;0.43;;;0.33;;
17127;SDS011;8679;50.842;4.322;2022-11-15T07:33:15;0.23;;;0.20;;
17127;SDS011;8679;50.842;4.322;2022-11-15T07:35:41;0.50;;;0.40;;
17127;SDS011;8679;50.842;4.322;2022-11-15T07:38:08;0.50;;;0.50;;
17127;SDS011;8679;50.842;4.322;2022-11-15T07:40:33;0.40;;;0.30;;
17127;SDS011;8679;50.842;4.322;2022-11-15T07:43:03;0.70;;;0.53;;
17127;SDS011;8679;50.842;4.322;2022-11-15T07:45:30;0.27;;;0.27;;
17127;SDS011;8679;50.842;4.322;2022-11-15T07:47:58;0.50;;;0.50;;
17127;SDS011;8679;50.842;4.322;2022-11-15T07:50:25;1.20;;;0.60;;
17127;SDS011;8679;50.842;4.322;2022-11-15T07:52:54;2.37;;;1.13;;
17127;SDS011;8679;50.842;4.322;2022-11-15T07:55:21;0.37;;;0.37;;
17127;SDS011;8679;50.842;4.322;2022-11-15T07:57:52;0.27;;;0.20;;
17127;SDS011;8679;50.842;4.322;2022-11-15T08:00:18;0.23;;;0.23;;
17127;SDS011;8679;50.842;4.322;2022-11-15T08:02:44;0.30;;;0.30;;
17127;SDS011;8679;50.842;4.322;2022-11-15T08:05:09;1.13;;;0.83;;
17127;SDS011;8679;50.842;4.322;2022-11-15T08:07:35;0.27;;;0.27;;
17127;SDS011;8679;50.842;4.322;2022-11-15T08:10:03;0.87;;;0.60;;
17127;SDS011;8679;50.842;4.322;2022-11-15T08:12:31;0.40;;;0.40;;
17127;SDS011;8679;50.842;4.322;2022-11-15T08:14:56;0.43;;;0.43;;
17127;SDS011;8679;50.842;4.322;2022-11-15T08:17:25;0.30;;;0.30;;
17127;SDS011;8679;50.842;4.322;2022-11-15T08:19:51;2.27;;;0.30;;
17127;SDS011;8679;50.842;4.322;2022-11-15T08:22:17;0.47;;;0.47;;
17127;SDS011;8679;50.842;4.322;2022-11-15T08:24:43;0.43;;;0.43;;
17127;SDS011;8679;50.842;4.322;2022-11-15T08:27:09;0.60;;;0.60;;
17127;SDS011;8679;50.842;4.322;2022-11-15T08:29:40;0.50;;;0.50;;
17127;SDS011;8679;50.842;4.322;2022-11-15T08:32:08;0.17;;;0.17;;
17127;SDS011;8679;50.842;4.322;2022-11-15T08:34:34;0.47;;;0.30;;
17127;SDS011;8679;50.842;4.322;2022-11-15T08:37:00;0.20;;;0.20;;
17127;SDS011;8679;50.842;4.322;2022-11-15T08:39:25;0.43;;;0.43;;
17127;SDS011;8679;50.842;4.322;2022-11-15T08:41:51;0.50;;;0.40;;
17127;SDS011;8679;50.842;4.322;2022-11-15T08:44:17;0.33;;;0.33;;
17127;SDS011;8679;50.842;4.322;2022-11-15T08:46:44;1.80;;;0.40;;
17127;SDS011;8679;50.842;4.322;2022-11-15T08:49:11;0.63;;;0.53;;
17127;SDS011;8679;50.842;4.322;2022-11-15T08:51:36;0.20;;;0.20;;
17127;SDS011;8679;50.842;4.322;2022-11-15T08:54:02;0.30;;;0.30;;
17127;SDS011;8679;50.842;4.322;2022-11-15T08:56:28;0.30;;;0.30;;
17127;SDS011;8679;50.842;4.322;2022-11-15T08:58:53;0.70;;;0.70;;
17127;SDS011;8679;50.842;4.322;2022-11-15T09:01:19;0.33;;;0.33;;
17127;SDS011;8679;50.842;4.322;2022-11-15T09:03:46;0.90;;;0.33;;
17127;SDS011;8679;50.842;4.322;2022-11-15T09:06:12;0.30;;;0.30;;
17127;SDS011;8679;50.842;4.322;2022-11-15T09:08:37;0.10;;;0.10;;
17127;SDS011;8679;50.842;4.322;2022-11-15T09:11:04;0.80;;;0.50;;
17127;SDS011;8679;50.842;4.322;2022-11-15T09:13:32;0.50;;;0.50;;
17127;SDS011;8679;50.842;4.322;2022-11-15T09:15:59;0.20;;;0.20;;
17127;SDS011;8679;50.842;4.322;2022-11-15T09:18:26;0.20;;;0.20;;
17127;SDS011;8679;50.842;4.322;2022-11-15T09:20:54;1.43;;;0.30;;
17127;SDS011;8679;50.842;4.322;2022-11-15T09:23:23;0.27;;;0.27;;
17127;SDS011;8679;50.842;4.322;2022-11-15T09:25:49;0.27;;;0.27;;
17127;SDS011;8679;50.842;4.322;2022-11-15T09:28:15;0.20;;;0.20;;
17127;SDS011;8679;50.842;4.322;2022-11-15T09:30:41;0.30;;;0.30;;
17127;SDS011;8679;50.842;4.322;2022-11-15T09:33:08;0.80;;;0.60;;
17127;SDS011;8679;50.842;4.322;2022-11-15T09:35:34;2.00;;;0.73;;
17127;SDS011;8679;50.842;4.322;2022-11-15T09:38:01;0.30;;;0.30;;
17127;SDS011;8679;50.842;4.322;2022-11-15T09:40:27;0.20;;;0.20;;
17127;SDS011;8679;50.842;4.322;2022-11-15T09:49:06;0.80;;;0.50;;
17127;SDS011;8679;50.842;4.322;2022-11-15T09:51:37;0.13;;;0.13;;
17127;SDS011;8679;50.842;4.322;2022-11-15T09:54:16;0.13;;;0.13;;
17127;SDS011;8679;50.842;4.322;2022-11-15T09:56:56;1.33;;;0.80;;
17127;SDS011;8679;50.842;4.322;2022-11-15T10:02:22;0.20;;;0.20;;
17127;SDS011;8679;50.842;4.322;2022-11-15T10:05:09;0.20;;;0.20;;
17127;SDS011;8679;50.842;4.322;2022-11-15T10:07:40;0.17;;;0.17;;
17127;SDS011;8679;50.842;4.322;2022-11-15T10:10:16;0.20;;;0.20;;
17127;SDS011;8679;50.842;4.322;2022-11-15T10:12:45;0.33;;;0.33;;
17127;SDS011;8679;50.842;4.322;2022-11-15T10:15:14;0.30;;;0.30;;
17127;SDS011;8679;50.842;4.322;2022-11-15T10:20:29;0.20;;;0.20;;
17127;SDS011;8679;50.842;4.322;2022-11-15T10:23:01;0.20;;;0.20;;
17127;SDS011;8679;50.842;4.322;2022-11-15T10:25:34;0.10;;;0.10;;
17127;SDS011;8679;50.842;4.322;2022-11-15T10:30:45;0.30;;;0.30;;
17127;SDS011;8679;50.842;4.322;2022-11-15T10:35:38;0.23;;;0.13;;
17127;SDS011;8679;50.842;4.322;2022-11-15T10:38:07;0.97;;;0.30;;
17127;SDS011;8679;50.842;4.322;2022-11-15T10:40:35;0.67;;;0.23;;
17127;SDS011;8679;50.842;4.322;2022-11-15T10:43:22;0.50;;;0.30;;
17127;SDS011;8679;50.842;4.322;2022-11-15T10:45:51;0.20;;;0.20;;
17127;SDS011;8679;50.842;4.322;2022-11-15T10:50:44;0.30;;;0.30;;
17127;SDS011;8679;50.842;4.322;2022-11-15T10:53:15;0.63;;;0.57;;
17127;SDS011;8679;50.842;4.322;2022-11-15T10:55:48;0.63;;;0.63;;
17127;SDS011;8679;50.842;4.322;2022-11-15T11:01:14;0.20;;;0.20;;
17127;SDS011;8679;50.842;4.322;2022-11-15T11:03:58;0.20;;;0.20;;
17127;SDS011;8679;50.842;4.322;2022-11-15T11:06:25;1.03;;;0.17;;
17127;SDS011;8679;50.842;4.322;2022-11-15T11:09:10;0.13;;;0.13;;
17127;SDS011;8679;50.842;4.322;2022-11-15T11:12:00;1.03;;;0.47;;
17127;SDS011;8679;50.842;4.322;2022-11-15T11:14:28;0.67;;;0.67;;
17127;SDS011;8679;50.842;4.322;2022-11-15T11:25:38;0.17;;;0.17;;
17127;SDS011;8679;50.842;4.322;2022-11-15T11:45:37;0.33;;;0.27;;
17127;SDS011;8679;50.842;4.322;2022-11-15T11:47:51;0.20;;;0.20;;
17127;SDS011;8679;50.842;4.322;2022-11-15T11:50:24;0.17;;;0.17;;
17127;SDS011;8679;50.842;4.322;2022-11-15T11:52:57;0.50;;;0.40;;
17127;SDS011;8679;50.842;4.322;2022-11-15T11:55:28;0.20;;;0.20;;
17127;SDS011;8679;50.842;4.322;2022-11-15T12:00:51;0.77;;;0.77;;
17127;SDS011;8679;50.842;4.322;2022-11-15T12:12:45;0.27;;;0.20;;
17127;SDS011;8679;50.842;4.322;2022-11-15T12:15:14;0.20;;;0.20;;
17127;SDS011;8679;50.842;4.322;2022-11-15T12:17:43;0.73;;;0.20;;
17127;SDS011;8679;50.842;4.322;2022-11-15T12:20:17;0.20;;;0.20;;
17127;SDS011;8679;50.842;4.322;2022-11-15T12:23:38;0.40;;;0.37;;
17127;SDS011;8679;50.842;4.322;2022-11-15T12:25:52;0.27;;;0.27;;
17127;SDS011;8679;50.842;4.322;2022-11-15T12:33:47;0.20;;;0.20;;
17127;SDS011;8679;50.842;4.322;2022-11-15T12:38:52;0.57;;;0.57;;
17127;SDS011;8679;50.842;4.322;2022-11-15T12:41:33;0.93;;;0.67;;
17127;SDS011;8679;50.842;4.322;2022-11-15T12:44:00;0.53;;;0.50;;
17127;SDS011;8679;50.842;4.322;2022-11-15T12:49:02;0.40;;;0.40;;
17127;SDS011;8679;50.842;4.322;2022-11-15T12:55:28;0.40;;;0.40;;
17127;SDS011;8679;50.842;4.322;2022-11-15T13:02:38;1.53;;;0.37;;
17127;SDS011;8679;50.842;4.322;2022-11-15T13:05:56;1.37;;;0.60;;
17127;SDS011;8679;50.842;4.322;2022-11-15T13:07:59;0.57;;;0.47;;
17127;SDS011;8679;50.842;4.322;2022-11-15T13:13:00;0.50;;;0.30;;
17127;SDS011;8679;50.842;4.322;2022-11-15T13:15:35;0.13;;;0.13;;
17127;SDS011;8679;50.842;4.322;2022-11-15T13:21:03;0.20;;;0.20;;
17127;SDS011;8679;50.842;4.322;2022-11-15T13:24:02;0.30;;;0.30;;
17127;SDS011;8679;50.842;4.322;2022-11-15T13:26:28;0.57;;;0.30;;
17127;SDS011;8679;50.842;4.322;2022-11-15T13:28:55;0.47;;;0.47;;
17127;SDS011;8679;50.842;4.322;2022-11-15T13:31:26;1.47;;;0.30;;
17127;SDS011;8679;50.842;4.322;2022-11-15T13:34:02;0.57;;;0.20;;
17127;SDS011;8679;50.842;4.322;2022-11-15T13:36:41;0.50;;;0.50;;
17127;SDS011;8679;50.842;4.322;2022-11-15T13:39:26;0.30;;;0.13;;
17127;SDS011;8679;50.842;4.322;2022-11-15T13:41:57;0.20;;;0.20;;
17127;SDS011;8679;50.842;4.322;2022-11-15T13:44:32;0.30;;;0.30;;
17127;SDS011;8679;50.842;4.322;2022-11-15T13:47:14;0.40;;;0.33;;
17127;SDS011;8679;50.842;4.322;2022-11-15T13:49:43;0.17;;;0.17;;
17127;SDS011;8679;50.842;4.322;2022-11-15T13:52:10;0.50;;;0.20;;
17127;SDS011;8679;50.842;4.322;2022-11-15T13:57:14;0.20;;;0.20;;
17127;SDS011;8679;50.842;4.322;2022-11-15T14:02:18;0.20;;;0.20;;
17127;SDS011;8679;50.842;4.322;2022-11-15T14:07:40;0.27;;;0.27;;
17127;SDS011;8679;50.842;4.322;2022-11-15T14:10:29;0.47;;;0.40;;
17127;SDS011;8679;50.842;4.322;2022-11-15T14:13:00;0.27;;;0.27;;
17127;SDS011;8679;50.842;4.322;2022-11-15T14:17:59;0.20;;;0.20;;
17127;SDS011;8679;50.842;4.322;2022-11-15T14:22:51;0.20;;;0.20;;
17127;SDS011;8679;50.842;4.322;2022-11-15T14:25:22;0.57;;;0.43;;
17127;SDS011;8679;50.842;4.322;2022-11-15T14:30:35;0.40;;;0.40;;
17127;SDS011;8679;50.842;4.322;2022-11-15T14:33:01;1.67;;;0.30;;
17127;SDS011;8679;50.842;4.322;2022-11-15T14:35:38;0.50;;;0.40;;
17127;SDS011;8679;50.842;4.322;2022-11-15T14:38:04;0.37;;;0.30;;
17127;SDS011;8679;50.842;4.322;2022-11-15T14:40:29;0.50;;;0.30;;
17127;SDS011;8679;50.842;4.322;2022-11-15T14:42:55;0.70;;;0.40;;
17127;SDS011;8679;50.842;4.322;2022-11-15T14:45:21;0.37;;;0.37;;
17127;SDS011;8679;50.842;4.322;2022-11-15T14:47:48;0.37;;;0.37;;
17127;SDS011;8679;50.842;4.322;2022-11-15T14:50:14;0.60;;;0.60;;
17127;SDS011;8679;50.842;4.322;2022-11-15T14:52:44;0.30;;;0.30;;
17127;SDS011;8679;50.842;4.322;2022-11-15T14:55:16;0.30;;;0.30;;
17127;SDS011;8679;50.842;4.322;2022-11-15T14:57:46;0.47;;;0.47;;
17127;SDS011;8679;50.842;4.322;2022-11-15T15:00:12;1.70;;;0.50;;
17127;SDS011;8679;50.842;4.322;2022-11-15T15:02:39;0.40;;;0.20;;
17127;SDS011;8679;50.842;4.322;2022-11-15T15:05:48;0.27;;;0.27;;
17127;SDS011;8679;50.842;4.322;2022-11-15T15:07:55;0.50;;;0.50;;
17127;SDS011;8679;50.842;4.322;2022-11-15T15:10:20;2.50;;;0.67;;
17127;SDS011;8679;50.842;4.322;2022-11-15T15:12:46;0.70;;;0.20;;
17127;SDS011;8679;50.842;4.322;2022-11-15T15:15:16;0.20;;;0.20;;
17127;SDS011;8679;50.842;4.322;2022-11-15T15:17:48;0.30;;;0.30;;
17127;SDS011;8679;50.842;4.322;2022-11-15T15:20:14;0.67;;;0.47;;
17127;SDS011;8679;50.842;4.322;2022-11-15T15:22:40;1.00;;;0.67;;
17127;SDS011;8679;50.842;4.322;2022-11-15T15:25:19;0.30;;;0.20;;
17127;SDS011;8679;50.842;4.322;2022-11-15T15:27:51;0.20;;;0.20;;
17127;SDS011;8679;50.842;4.322;2022-11-15T15:30:17;0.50;;;0.50;;
17127;SDS011;8679;50.842;4.322;2022-11-15T15:32:43;0.30;;;0.30;;
17127;SDS011;8679;50.842;4.322;2022-11-15T15:35:11;0.47;;;0.40;;
17127;SDS011;8679;50.842;4.322;2022-11-15T15:37:37;0.33;;;0.33;;
17127;SDS011;8679;50.842;4.322;2022-11-15T15:40:08;0.27;;;0.20;;
17127;SDS011;8679;50.842;4.322;2022-11-15T15:42:43;0.93;;;0.60;;
17127;SDS011;8679;50.842;4.322;2022-11-15T15:45:09;0.37;;;0.37;;
17127;SDS011;8679;50.842;4.322;2022-11-15T15:47:35;0.33;;;0.30;;
17127;SDS011;8679;50.842;4.322;2022-11-15T15:50:02;0.60;;;0.60;;
17127;SDS011;8679;50.842;4.322;2022-11-15T15:52:29;0.40;;;0.20;;
17127;SDS011;8679;50.842;4.322;2022-11-15T15:54:55;0.67;;;0.47;;
17127;SDS011;8679;50.842;4.322;2022-11-15T15:57:21;0.20;;;0.20;;
17127;SDS011;8679;50.842;4.322;2022-11-15T15:59:47;0.30;;;0.30;;
17127;SDS011;8679;50.842;4.322;2022-11-15T16:02:12;0.40;;;0.40;;
17127;SDS011;8679;50.842;4.322;2022-11-15T16:04:39;0.73;;;0.20;;
17127;SDS011;8679;50.842;4.322;2022-11-15T16:07:05;0.30;;;0.30;;
17127;SDS011;8679;50.842;4.322;2022-11-15T16:09:37;0.43;;;0.43;;
17127;SDS011;8679;50.842;4.322;2022-11-15T16:12:21;0.30;;;0.30;;
17127;SDS011;8679;50.842;4.322;2022-11-15T16:14:47;0.23;;;0.23;;
17127;SDS011;8679;50.842;4.322;2022-11-15T16:17:17;0.33;;;0.33;;
17127;SDS011;8679;50.842;4.322;2022-11-15T16:19:46;0.57;;;0.30;;
17127;SDS011;8679;50.842;4.322;2022-11-15T16:22:15;1.00;;;0.47;;
17127;SDS011;8679;50.842;4.322;2022-11-15T16:24:40;0.40;;;0.30;;
17127;SDS011;8679;50.842;4.322;2022-11-15T16:27:10;0.43;;;0.43;;
17127;SDS011;8679;50.842;4.322;2022-11-15T16:29:39;0.30;;;0.30;;
17127;SDS011;8679;50.842;4.322;2022-11-15T16:32:06;1.07;;;0.87;;
17127;SDS011;8679;50.842;4.322;2022-11-15T16:34:31;0.87;;;0.70;;
17127;SDS011;8679;50.842;4.322;2022-11-15T16:36:57;0.27;;;0.27;;
17127;SDS011;8679;50.842;4.322;2022-11-15T16:39:22;0.23;;;0.23;;
17127;SDS011;8679;50.842;4.322;2022-11-15T16:41:48;0.50;;;0.50;;
17127;SDS011;8679;50.842;4.322;2022-11-15T16:44:14;0.43;;;0.43;;
17127;SDS011;8679;50.842;4.322;2022-11-15T16:46:43;0.30;;;0.30;;
17127;SDS011;8679;50.842;4.322;2022-11-15T16:49:14;0.40;;;0.30;;
17127;SDS011;8679;50.842;4.322;2022-11-15T16:51:40;0.97;;;0.40;;
17127;SDS011;8679;50.842;4.322;2022-11-15T16:54:08;0.63;;;0.57;;
17127;SDS011;8679;50.842;4.322;2022-11-15T16:56:34;0.47;;;0.47;;
17127;SDS011;8679;50.842;4.322;2022-11-15T16:59:00;1.13;;;0.63;;
17127;SDS011;8679;50.842;4.322;2022-11-15T17:01:26;0.40;;;0.40;;
17127;SDS011;8679;50.842;4.322;2022-11-15T17:03:55;1.77;;;0.67;;
17127;SDS011;8679;50.842;4.322;2022-11-15T17:06:22;0.70;;;0.70;;
17127;SDS011;8679;50.842;4.322;2022-11-15T17:08:49;0.33;;;0.30;;
17127;SDS011;8679;50.842;4.322;2022-11-15T17:11:16;1.17;;;0.40;;
17127;SDS011;8679;50.842;4.322;2022-11-15T17:13:43;0.67;;;0.50;;
17127;SDS011;8679;50.842;4.322;2022-11-15T17:16:11;0.20;;;0.20;;